SAS1996 LEBL-EKCH
Flight info
| Callsign | SAS1996 |
|---|---|
| Flight time | N/A |
| Altitude | 30000 |
| Route | DALIN DCT PIVUS DCT DIBER/N0454F320 DCT ADITA DCT MAXIR DCT LUSOL DCT BODRU DCT OKTET DCT IRMAR/N0449F340 DCT KINES DCT VANAS DCT MOBLO DCT UBIMA DCT GILIR DCT PENDU DCT UZCUX DCT SOSAD DCT OBOKA/N0449F330 DCT NIE/N0446F350 DCT MEGAR P605 GESKA Z711 MONAK |
| Aircraft | MD82/M-SDFGIRWY/S |
Departure
| Time | 2026-05-04 14:37 |
|---|---|
| Airport | Josep Tarradellas Barcelona-El Prat Airport (LEBL) |
Arrival
| Time | N/A |
|---|---|
| Airport | Copenhagen Kastrup Airport (EKCH) |
| Time | Latitude | Longitude | Altitude | Speed | Heading |
|---|---|---|---|---|---|
| 2026-05-04 14:09 | 41.28973 | 2.07904 | 20 ft | 0 kts | 336° |
| 2026-05-04 14:26 | 41.28962 | 2.07910 | 19 ft | 4 kts | 336° |
| 2026-05-04 14:26 | 41.28938 | 2.07925 | 23 ft | 4 kts | 334° |
| 2026-05-04 14:26 | 41.28919 | 2.07944 | 24 ft | 4 kts | 299° |
| 2026-05-04 14:26 | 41.28916 | 2.07969 | 22 ft | 4 kts | 248° |
| 2026-05-04 14:27 | 41.28924 | 2.07995 | 22 ft | 4 kts | 245° |
| 2026-05-04 14:27 | 41.28935 | 2.08028 | 23 ft | 4 kts | 245° |
| 2026-05-04 14:27 | 41.28941 | 2.08043 | 23 ft | 0 kts | 245° |
| 2026-05-04 14:29 | 41.28936 | 2.08029 | 22 ft | 5 kts | 245° |
| 2026-05-04 14:29 | 41.28877 | 2.08010 | 19 ft | 5 kts | 155° |
| 2026-05-04 14:30 | 41.28843 | 2.08031 | 19 ft | 6 kts | 155° |
| 2026-05-04 14:30 | 41.28815 | 2.08048 | 18 ft | 7 kts | 155° |
| 2026-05-04 14:30 | 41.28747 | 2.08158 | 16 ft | 9 kts | 71° |
| 2026-05-04 14:31 | 41.28737 | 2.08230 | 18 ft | 8 kts | 112° |
| 2026-05-04 14:31 | 41.28750 | 2.08403 | 18 ft | 14 kts | 65° |
| 2026-05-04 14:32 | 41.28847 | 2.08682 | 20 ft | 19 kts | 65° |
| 2026-05-04 14:32 | 41.28901 | 2.08840 | 17 ft | 19 kts | 65° |
| 2026-05-04 14:32 | 41.28955 | 2.08999 | 17 ft | 19 kts | 66° |
| 2026-05-04 14:32 | 41.29008 | 2.09158 | 17 ft | 19 kts | 65° |
| 2026-05-04 14:33 | 41.29063 | 2.09316 | 17 ft | 19 kts | 65° |
| 2026-05-04 14:33 | 41.29117 | 2.09475 | 17 ft | 19 kts | 65° |
| 2026-05-04 14:33 | 41.29172 | 2.09634 | 17 ft | 19 kts | 65° |
| 2026-05-04 14:33 | 41.29226 | 2.09792 | 17 ft | 19 kts | 65° |
| 2026-05-04 14:34 | 41.29284 | 2.09940 | 19 ft | 17 kts | 57° |
| 2026-05-04 14:34 | 41.29335 | 2.10076 | 20 ft | 16 kts | 65° |
| 2026-05-04 14:34 | 41.29370 | 2.10200 | 16 ft | 9 kts | 88° |
| 2026-05-04 14:34 | 41.29337 | 2.10264 | 14 ft | 7 kts | 152° |
| 2026-05-04 14:35 | 41.29301 | 2.10286 | 15 ft | 6 kts | 155° |
| 2026-05-04 14:35 | 41.29265 | 2.10307 | 14 ft | 5 kts | 160° |
| 2026-05-04 14:35 | 41.29234 | 2.10312 | 15 ft | 4 kts | 187° |
| 2026-05-04 14:35 | 41.29219 | 2.10304 | 15 ft | 1 kts | 214° |
| 2026-05-04 14:36 | 41.29204 | 2.10277 | 16 ft | 6 kts | 244° |
| 2026-05-04 14:36 | 41.29184 | 2.10218 | 18 ft | 10 kts | 245° |
| 2026-05-04 14:36 | 41.29090 | 2.09942 | 20 ft | 60 kts | 245° |
| 2026-05-04 14:36 | 41.28823 | 2.09164 | 19 ft | 122 kts | 245° |
| 2026-05-04 14:37 | 41.28396 | 2.07921 | 48 ft | 170 kts | 246° |
| 2026-05-04 14:37 | 41.27939 | 2.06499 | 845 ft | 161 kts | 246° |
| 2026-05-04 14:37 | 41.27332 | 2.05239 | 1492 ft | 166 kts | 218° |
| 2026-05-04 14:37 | 41.26274 | 2.04715 | 2030 ft | 176 kts | 180° |
| 2026-05-04 14:38 | 41.25087 | 2.04762 | 2880 ft | 165 kts | 179° |
| 2026-05-04 14:38 | 41.23898 | 2.04828 | 3377 ft | 177 kts | 179° |
| 2026-05-04 14:38 | 41.22724 | 2.04925 | 4117 ft | 166 kts | 178° |
| 2026-05-04 14:38 | 41.21467 | 2.05078 | 4196 ft | 199 kts | 175° |
| 2026-05-04 14:39 | 41.20075 | 2.05302 | 4815 ft | 201 kts | 174° |
| 2026-05-04 14:39 | 41.18640 | 2.05569 | 5317 ft | 215 kts | 173° |
| 2026-05-04 14:39 | 41.17110 | 2.05761 | 5865 ft | 227 kts | 179° |
| 2026-05-04 14:40 | 41.13770 | 2.05758 | 6947 ft | 251 kts | 177° |
| 2026-05-04 14:40 | 41.12098 | 2.06571 | 7407 ft | 270 kts | 142° |
| 2026-05-04 14:40 | 41.10951 | 2.08611 | 7976 ft | 287 kts | 118° |
| 2026-05-04 14:40 | 41.10522 | 2.11236 | 8524 ft | 298 kts | 89° |
| 2026-05-04 14:41 | 41.11111 | 2.13894 | 8973 ft | 308 kts | 59° |
| 2026-05-04 14:41 | 41.12546 | 2.15991 | 9496 ft | 311 kts | 40° |
| 2026-05-04 14:41 | 41.15249 | 2.20480 | 10393 ft | 316 kts | 60° |
| 2026-05-04 14:42 | 41.17601 | 2.25464 | 11289 ft | 322 kts | 58° |
| 2026-05-04 14:42 | 41.18827 | 2.27955 | 11776 ft | 324 kts | 58° |
| 2026-05-04 14:42 | 41.20058 | 2.30429 | 12224 ft | 325 kts | 57° |
| 2026-05-04 14:43 | 41.21320 | 2.32941 | 12673 ft | 329 kts | 57° |
| 2026-05-04 14:43 | 41.22606 | 2.35475 | 13135 ft | 332 kts | 57° |
| 2026-05-04 14:43 | 41.23908 | 2.38023 | 13573 ft | 335 kts | 56° |
| 2026-05-04 14:43 | 41.25234 | 2.40607 | 13840 ft | 344 kts | 56° |
| 2026-05-04 14:44 | 41.26617 | 2.43296 | 13975 ft | 361 kts | 56° |
| 2026-05-04 14:44 | 41.28061 | 2.46106 | 14111 ft | 375 kts | 56° |
| 2026-05-04 14:44 | 41.29562 | 2.49028 | 14250 ft | 389 kts | 56° |
| 2026-05-04 14:44 | 41.31110 | 2.52048 | 14452 ft | 400 kts | 56° |
| 2026-05-04 14:45 | 41.32690 | 2.55127 | 14919 ft | 404 kts | 56° |
| 2026-05-04 14:45 | 41.34275 | 2.58216 | 15440 ft | 405 kts | 56° |
| 2026-05-04 14:45 | 41.36058 | 2.61125 | 15911 ft | 409 kts | 40° |
| 2026-05-04 14:45 | 41.38447 | 2.63152 | 16373 ft | 408 kts | 19° |
| 2026-05-04 14:46 | 41.41181 | 2.64066 | 16868 ft | 405 kts | 5° |
| 2026-05-04 14:46 | 41.43982 | 2.64638 | 17314 ft | 410 kts | 7° |
| 2026-05-04 14:46 | 41.46783 | 2.65469 | 17771 ft | 415 kts | 12° |
| 2026-05-04 14:46 | 41.49559 | 2.66584 | 18279 ft | 418 kts | 15° |
| 2026-05-04 14:47 | 41.52315 | 2.67877 | 18752 ft | 421 kts | 18° |
| 2026-05-04 14:47 | 41.55062 | 2.69270 | 19295 ft | 423 kts | 19° |
| 2026-05-04 14:47 | 41.57811 | 2.70725 | 19784 ft | 428 kts | 20° |
| 2026-05-04 14:47 | 41.60584 | 2.72223 | 20218 ft | 431 kts | 20° |
| 2026-05-04 14:48 | 41.63377 | 2.73725 | 20623 ft | 434 kts | 19° |
| 2026-05-04 14:48 | 41.66193 | 2.75227 | 21011 ft | 437 kts | 19° |
| 2026-05-04 14:48 | 41.69031 | 2.76728 | 21408 ft | 440 kts | 19° |
| 2026-05-04 14:48 | 41.71894 | 2.78234 | 21805 ft | 444 kts | 19° |
| 2026-05-04 14:49 | 41.74776 | 2.79744 | 22241 ft | 446 kts | 19° |
| 2026-05-04 14:49 | 41.77674 | 2.81258 | 22648 ft | 448 kts | 19° |
| 2026-05-04 14:49 | 41.80588 | 2.82787 | 23029 ft | 452 kts | 19° |
| 2026-05-04 14:49 | 41.83520 | 2.84331 | 23420 ft | 455 kts | 19° |
| 2026-05-04 14:50 | 41.86473 | 2.85886 | 23736 ft | 458 kts | 19° |
| 2026-05-04 14:50 | 41.89452 | 2.87454 | 24039 ft | 461 kts | 19° |
| 2026-05-04 14:50 | 41.92447 | 2.89031 | 24370 ft | 464 kts | 19° |
| 2026-05-04 14:50 | 41.95464 | 2.90619 | 24696 ft | 467 kts | 19° |
| 2026-05-04 14:51 | 41.98512 | 2.92217 | 24915 ft | 473 kts | 19° |
| 2026-05-04 14:51 | 42.01586 | 2.93835 | 25210 ft | 476 kts | 19° |
| 2026-05-04 14:51 | 42.04673 | 2.95470 | 25542 ft | 478 kts | 19° |
| 2026-05-04 14:51 | 42.07777 | 2.97117 | 25856 ft | 481 kts | 19° |
| 2026-05-04 14:52 | 42.10901 | 2.98775 | 26137 ft | 484 kts | 19° |
| 2026-05-04 14:52 | 42.14047 | 3.00445 | 26434 ft | 487 kts | 19° |
| 2026-05-04 14:52 | 42.17203 | 3.02124 | 26768 ft | 489 kts | 19° |
| 2026-05-04 14:52 | 42.20334 | 3.03791 | 27095 ft | 491 kts | 19° |
| 2026-05-04 14:53 | 42.23562 | 3.05509 | 27377 ft | 494 kts | 19° |
| 2026-05-04 14:53 | 42.26733 | 3.07201 | 27503 ft | 500 kts | 19° |
| 2026-05-04 14:53 | 42.30028 | 3.08954 | 27822 ft | 503 kts | 19° |
| 2026-05-04 14:53 | 42.33241 | 3.10663 | 28155 ft | 505 kts | 19° |
| 2026-05-04 14:54 | 42.36516 | 3.12406 | 28489 ft | 507 kts | 19° |
| 2026-05-04 14:54 | 42.39785 | 3.14150 | 29014 ft | 503 kts | 19° |
| 2026-05-04 14:54 | 42.43032 | 3.15885 | 29504 ft | 501 kts | 19° |
| 2026-05-04 14:54 | 42.46276 | 3.17621 | 29945 ft | 500 kts | 18° |
| 2026-05-04 14:55 | 42.49510 | 3.19353 | 30303 ft | 500 kts | 18° |
| 2026-05-04 14:55 | 42.52744 | 3.21088 | 30641 ft | 500 kts | 18° |
| 2026-05-04 14:55 | 42.55973 | 3.22828 | 30984 ft | 499 kts | 18° |
| 2026-05-04 14:55 | 42.59192 | 3.24561 | 31411 ft | 496 kts | 19° |
| 2026-05-04 14:56 | 42.62381 | 3.26279 | 31915 ft | 491 kts | 18° |
| 2026-05-04 14:56 | 42.65553 | 3.27991 | 32248 ft | 490 kts | 18° |
| 2026-05-04 14:56 | 42.68726 | 3.29703 | 32496 ft | 491 kts | 18° |
| 2026-05-04 14:56 | 42.71910 | 3.31418 | 32745 ft | 492 kts | 18° |
| 2026-05-04 14:57 | 42.75088 | 3.33133 | 33060 ft | 491 kts | 18° |
| 2026-05-04 14:57 | 42.78261 | 3.34847 | 33364 ft | 490 kts | 18° |
| 2026-05-04 14:57 | 42.81431 | 3.36562 | 33652 ft | 490 kts | 18° |
| 2026-05-04 14:57 | 42.84606 | 3.38280 | 33797 ft | 493 kts | 18° |
| 2026-05-04 14:58 | 42.91041 | 3.41763 | 33888 ft | 503 kts | 18° |
| 2026-05-04 14:58 | 42.97574 | 3.45325 | 33913 ft | 507 kts | 18° |
| 2026-05-04 14:59 | 43.04078 | 3.48877 | 33917 ft | 500 kts | 18° |
| 2026-05-04 15:00 | 43.13698 | 3.54140 | 33929 ft | 499 kts | 18° |
| 2026-05-04 15:00 | 43.20166 | 3.57677 | 33941 ft | 502 kts | 18° |
| 2026-05-04 15:01 | 43.29887 | 3.63017 | 33933 ft | 499 kts | 18° |
| 2026-05-04 15:01 | 43.36320 | 3.66578 | 33940 ft | 499 kts | 19° |
| 2026-05-04 15:02 | 43.42774 | 3.70142 | 33943 ft | 501 kts | 19° |
| 2026-05-04 15:02 | 43.49233 | 3.73715 | 33942 ft | 499 kts | 19° |
| 2026-05-04 15:03 | 43.55481 | 3.77179 | 33985 ft | 499 kts | 19° |
| 2026-05-04 15:03 | 43.61946 | 3.80766 | 33962 ft | 503 kts | 19° |
| 2026-05-04 15:04 | 43.68409 | 3.84373 | 33959 ft | 498 kts | 19° |
| 2026-05-04 15:04 | 43.74812 | 3.87961 | 33970 ft | 496 kts | 19° |
| 2026-05-04 15:05 | 43.81195 | 3.91533 | 33982 ft | 500 kts | 19° |
| 2026-05-04 15:05 | 43.87708 | 3.95181 | 33994 ft | 503 kts | 19° |
| 2026-05-04 15:06 | 43.94197 | 3.98822 | 33984 ft | 502 kts | 19° |
| 2026-05-04 15:07 | 44.03833 | 4.04267 | 33985 ft | 501 kts | 19° |
| 2026-05-04 15:07 | 44.10308 | 4.07925 | 33987 ft | 503 kts | 19° |
| 2026-05-04 15:08 | 44.16807 | 4.11616 | 34005 ft | 505 kts | 19° |
| 2026-05-04 15:08 | 44.23301 | 4.15308 | 33995 ft | 503 kts | 19° |
| 2026-05-04 15:09 | 44.29775 | 4.18988 | 33990 ft | 502 kts | 19° |
| 2026-05-04 15:09 | 44.36230 | 4.22665 | 33999 ft | 501 kts | 19° |
| 2026-05-04 15:10 | 44.45901 | 4.28197 | 34004 ft | 500 kts | 19° |
| 2026-05-04 15:11 | 44.55562 | 4.33762 | 34015 ft | 500 kts | 19° |
| 2026-05-04 15:11 | 44.62001 | 4.37469 | 34005 ft | 500 kts | 19° |
| 2026-05-04 15:12 | 44.68436 | 4.41178 | 33998 ft | 500 kts | 19° |
| 2026-05-04 15:12 | 44.74874 | 4.44899 | 34006 ft | 500 kts | 19° |
| 2026-05-04 15:13 | 44.81312 | 4.48632 | 34000 ft | 500 kts | 19° |
| 2026-05-04 15:13 | 44.87745 | 4.52377 | 34008 ft | 500 kts | 19° |
| 2026-05-04 15:14 | 44.94179 | 4.56130 | 34014 ft | 500 kts | 19° |
| 2026-05-04 15:14 | 45.00594 | 4.59881 | 34002 ft | 498 kts | 19° |
| 2026-05-04 15:15 | 45.06988 | 4.63628 | 34000 ft | 498 kts | 19° |
| 2026-05-04 15:15 | 45.13399 | 4.67381 | 34010 ft | 498 kts | 19° |
| 2026-05-04 15:16 | 45.22982 | 4.73011 | 34009 ft | 497 kts | 19° |
| 2026-05-04 15:17 | 45.32463 | 4.78632 | 34002 ft | 493 kts | 20° |
| 2026-05-04 15:17 | 45.40873 | 4.83618 | 34012 ft | 491 kts | 19° |
| 2026-05-04 15:18 | 45.47195 | 4.87368 | 34013 ft | 493 kts | 20° |
| 2026-05-04 15:19 | 45.56707 | 4.93029 | 34007 ft | 492 kts | 20° |
| 2026-05-04 15:19 | 45.66140 | 4.98684 | 34012 ft | 490 kts | 20° |
| 2026-05-04 15:20 | 45.72436 | 5.02470 | 34018 ft | 491 kts | 20° |
| 2026-05-04 15:20 | 45.78736 | 5.06259 | 34020 ft | 492 kts | 20° |
| 2026-05-04 15:21 | 45.85049 | 5.10061 | 34017 ft | 492 kts | 20° |
| 2026-05-04 15:22 | 45.94491 | 5.15761 | 34013 ft | 489 kts | 21° |
| 2026-05-04 15:22 | 46.03860 | 5.21461 | 34007 ft | 487 kts | 21° |
| 2026-05-04 15:23 | 46.10115 | 5.25275 | 34017 ft | 489 kts | 21° |
| 2026-05-04 15:23 | 46.16338 | 5.29073 | 34013 ft | 490 kts | 21° |
| 2026-05-04 15:24 | 46.28895 | 5.36753 | 34015 ft | 488 kts | 21° |
| 2026-05-04 15:25 | 46.35138 | 5.40589 | 34009 ft | 487 kts | 21° |
| 2026-05-04 15:26 | 46.44484 | 5.46385 | 34015 ft | 488 kts | 21° |
| 2026-05-04 15:26 | 46.53809 | 5.52134 | 34014 ft | 488 kts | 22° |
| 2026-05-04 15:27 | 46.63109 | 5.57918 | 34014 ft | 488 kts | 22° |
| 2026-05-04 15:28 | 46.72467 | 5.63748 | 34014 ft | 488 kts | 21° |
| 2026-05-04 15:29 | 46.81832 | 5.69620 | 34008 ft | 489 kts | 22° |
| 2026-05-04 15:30 | 47.03713 | 5.83404 | 34023 ft | 491 kts | 22° |
| 2026-05-04 15:31 | 47.13102 | 5.89346 | 34014 ft | 489 kts | 22° |
| 2026-05-04 15:32 | 47.28746 | 5.99087 | 34020 ft | 489 kts | 22° |
| 2026-05-04 15:34 | 47.44614 | 6.07885 | 34021 ft | 488 kts | 15° |
| 2026-05-04 15:34 | 47.54402 | 6.12126 | 34018 ft | 489 kts | 15° |
| 2026-05-04 15:35 | 47.64124 | 6.16491 | 34023 ft | 490 kts | 16° |